Seago Piraeus — OXVD2 — position and weather

sailwx.info

Track history (hours):
 
Tides and Currents Weather Stations Pressure Air Temp Water Temp Dewpoint Dewpoint Depression Visibility Wind Speed Wind Dir Waves Ship Positions

Seago Piraeus

Last reported at 2016-Jul-01 23:33 UTC. Time now 2016-Jul-02 00:22 UTC.
Position N 53°39' E 008°07'.

Length 294 m; draft 12 m.

Type: Ship (hazmat cat A). MMSI: 219117000.

Date/timePositionNaut miles runAvg speedWind from/ knotsBaromVisibWave heightAir tempDewpointWater temp
2016-Jul-01 23:33N 53°39' E 008°07'1312.6
2016-Jul-01 22:33N 53°49' E 007°55'1111.2
2016-Jul-01 21:33N 53°52' E 007°37'6 5.6
2016-Jul-01 20:33N 53°52' E 007°28'1 1.1
2016-Jul-01 19:33N 53°53' E 007°28'1 0.7
2016-Jul-01 18:34N 53°53' E 007°27'5 4.8
2016-Jul-01 17:33N 53°52' E 007°19'2020.1
2016-Jul-01 16:34N 53°48' E 006°46'2323.0
2016-Jul-01 15:33N 53°42' E 006°08'2323.3
2016-Jul-01 14:34N 53°35' E 005°31'2423.5
2016-Jul-01 13:33N 53°26' E 004°53'2422.8
2016-Jul-01 12:31N 53°07' E 004°30'2223.5
2016-Jul-01 11:33N 52°49' E 004°09'9322.6
2016-Jul-01 07:27N 51°53' E 002°08'1719.1
2016-Jul-01 06:33N 51°50' E 001°41'1212.3
2016-Jul-01 05:33N 51°56' E 001°23'4 4.0
2016-Jul-01 04:33N 51°58' E 001°17'0 0.0
2016-Jul-01 03:32N 51°58' E 001°17'0 0.0
2016-Jul-01 02:32N 51°58' E 001°17'0 0.0
2016-Jul-01 01:32N 51°58' E 001°17'0 0.0
2016-Jul-01 00:32N 51°58' E 001°17'0 0.0
2016-Jun-30 23:32N 51°58' E 001°17'0 0.0
2016-Jun-30 22:32N 51°58' E 001°17'0 0.0
2016-Jun-30 21:32N 51°58' E 001°17'0 0.0
2016-Jun-30 20:32N 51°58' E 001°17'0 0.0
2016-Jun-30 19:32N 51°58' E 001°17'0 0.0
2016-Jun-30 18:32N 51°58' E 001°17'0 0.0
2016-Jun-30 17:32N 51°58' E 001°17'0 0.0
2016-Jun-30 16:32N 51°58' E 001°17'0 0.0
2016-Jun-30 15:32N 51°58' E 001°17'0 0.0
2016-Jun-30 14:32N 51°58' E 001°17'0 0.0
2016-Jun-30 13:32N 51°58' E 001°17'0 0.0
2016-Jun-30 12:32N 51°58' E 001°17'0 0.0
2016-Jun-30 11:32N 51°58' E 001°17'0 0.0
2016-Jun-30 10:32N 51°58' E 001°17'0 0.0
2016-Jun-30 09:32N 51°58' E 001°17'0 0.0
2016-Jun-30 08:32N 51°58' E 001°17'0 0.0
2016-Jun-30 07:32N 51°58' E 001°17'0 0.0
2016-Jun-30 06:32N 51°58' E 001°17'0 0.0
2016-Jun-30 05:32N 51°58' E 001°17'0 0.0
2016-Jun-30 04:32N 51°58' E 001°17'0 0.0
2016-Jun-30 03:32N 51°58' E 001°17'0 0.0
2016-Jun-30 02:32N 51°58' E 001°17'0 0.0
2016-Jun-30 01:32N 51°58' E 001°17'0 0.0
2016-Jun-30 00:32N 51°58' E 001°17'0 0.0
2016-Jun-29 23:32N 51°58' E 001°17'0 0.0
2016-Jun-29 22:32N 51°58' E 001°17'0 0.0
2016-Jun-29 21:32N 51°58' E 001°17'0 0.0
2016-Jun-29 20:32N 51°58' E 001°17'0 0.0
2016-Jun-29 19:32N 51°58' E 001°17'0 0.0
2016-Jun-29 18:32N 51°58' E 001°17'0 0.0
2016-Jun-29 17:32N 51°58' E 001°17'0 0.0
2016-Jun-29 16:32N 51°58' E 001°17'0 0.0
2016-Jun-29 15:32N 51°58' E 001°17'0 0.0
2016-Jun-29 14:32N 51°58' E 001°17'0 0.0
2016-Jun-29 13:32N 51°58' E 001°17'0 0.0
2016-Jun-29 12:32N 51°58' E 001°17'0 0.0
2016-Jun-29 11:32N 51°58' E 001°17'0 0.0
2016-Jun-29 10:32N 51°58' E 001°17'0 0.0
2016-Jun-29 09:32N 51°58' E 001°17'0 0.0
2016-Jun-29 08:32N 51°58' E 001°17'2 1.8
2016-Jun-29 07:33N 51°56' E 001°19'9 9.5
2016-Jun-29 06:33N 51°54' E 001°34'6 5.7
2016-Jun-29 05:33N 51°51' E 001°42'4 4.4
2016-Jun-29 04:33N 51°51' E 001°49'5 5.4
2016-Jun-29 03:33N 51°45' E 001°49'5 5.2
2016-Jun-29 02:33N 51°40' E 001°49'8 8.1
2016-Jun-29 01:33N 51°32' E 001°49'10 9.8
2016-Jun-29 00:33N 51°23' E 001°44'1212.3
2016-Jun-28 23:33N 51°11' E 001°38'1211.6
2016-Jun-28 22:33N 51°00' E 001°32'1413.8
2016-Jun-28 21:34N 50°48' E 001°23'5012.5
2016-Jun-28 17:33N 50°23' E 000°15'1413.6
2016-Jun-28 16:34N 50°19' W 000°06'1514.3
2016-Jun-28 15:32N 50°15' W 000°28'1515.3
2016-Jun-28 14:33N 50°10' W 000°50'7815.7
2016-Jun-28 09:33N 49°50' W 002°48'1515.0
2016-Jun-28 08:34N 49°43' W 003°09'1615.6
2016-Jun-28 07:34N 49°35' W 003°30'6416.0
2016-Jun-28 03:34N 49°03' W 004°55'1717.2
2016-Jun-28 02:34N 48°54' W 005°17'60417.2
2016-Jun-26 15:29N 39°22' W 009°49'1617.1
2016-Jun-26 14:33N 39°07' W 009°50'1717.1
2016-Jun-26 13:33N 38°49' W 009°51'1716.8
2016-Jun-26 12:33N 38°33' W 009°47'1716.7
2016-Jun-26 11:33N 38°17' W 009°42'1717.1
2016-Jun-26 10:34N 37°60' W 009°38'1716.9
2016-Jun-26 09:33N 37°43' W 009°33'3517.3
2016-Jun-26 07:33N 37°09' W 009°24'4615.2
2016-Jun-26 04:33N 36°38' W 008°43'1817.5
2016-Jun-26 03:33N 36°32' W 008°22'13916.8
2016-Jun-25 19:19N 35°58' W 005°36'1013.8
2016-Jun-25 18:33N 36°02' W 005°24'7 7.3
2016-Jun-25 17:34N 36°10' W 005°25'0 0.0
2016-Jun-25 16:30N 36°10' W 005°25'0 0.0
2016-Jun-25 15:33N 36°09' W 005°25'0 0.0
2016-Jun-25 14:30N 36°09' W 005°25'0 0.0
2016-Jun-25 13:33N 36°09' W 005°25'0 0.0
2016-Jun-25 10:15N 36°09' W 005°25'0 0.0
2016-Jun-25 08:30N 36°09' W 005°25'0 0.0
2016-Jun-25 07:33N 36°09' W 005°25'0 0.0
2016-Jun-25 06:27N 36°09' W 005°25'0 0.1
2016-Jun-25 05:33N 36°09' W 005°25'0 0.1
2016-Jun-25 04:33N 36°09' W 005°25'0 0.1
2016-Jun-25 03:33N 36°10' W 005°25'0 0.1
2016-Jun-25 02:33N 36°10' W 005°25'0 0.1
2016-Jun-25 01:33N 36°10' W 005°25'0 0.1
2016-Jun-25 00:33N 36°09' W 005°25'0 0.1
2016-Jun-24 23:33N 36°09' W 005°25'0 0.0
2016-Jun-24 22:33N 36°09' W 005°25'0 0.1
2016-Jun-24 21:32N 36°09' W 005°25'0 0.1
2016-Jun-24 20:33N 36°10' W 005°25'0 0.1
2016-Jun-24 19:33N 36°10' W 005°25'0 0.0
2016-Jun-24 18:33N 36°10' W 005°25'0 0.0
2016-Jun-24 17:33N 36°10' W 005°25'0 0.1
2016-Jun-24 16:33N 36°10' W 005°25'0 0.0
2016-Jun-24 15:33N 36°10' W 005°25'0 0.0
2016-Jun-24 14:33N 36°10' W 005°25'0 0.1
2016-Jun-24 13:28N 36°09' W 005°25'4 4.3
2016-Jun-24 12:34N 36°06' W 005°23'4 4.1
2016-Jun-24 11:34N 36°05' W 005°18'16017.1
2016-Jun-24 02:14N 36°32' W 002°03'1318.9
2016-Jun-24 01:33N 36°40' W 001°51'1919.0
2016-Jun-24 00:34N 36°52' W 001°33'1918.9
2016-Jun-23 23:33N 37°05' W 001°15'1918.8
2016-Jun-23 22:33N 37°17' W 000°57'1918.6
2016-Jun-23 21:33N 37°30' W 000°40'1818.0
2016-Jun-23 20:33N 37°44' W 000°26'1817.9
2016-Jun-23 19:33N 37°59' W 000°13'1918.4
2016-Jun-23 18:33N 38°15' W 000°01'1818.1
2016-Jun-23 17:32N 38°30' E 000°12'1818.0
2016-Jun-23 16:33N 38°45' E 000°24'1818.2
2016-Jun-23 15:32N 38°60' E 000°10'1818.3
2016-Jun-23 14:33N 39°14' W 000°04'1616.2
2016-Jun-23 13:33N 39°26' W 000°19'0 0.4
2016-Jun-23 12:28N 39°26' W 000°19'0 0.0
2016-Jun-23 11:33N 39°26' W 000°19'0 0.0
2016-Jun-23 10:33N 39°26' W 000°19'0 0.0
2016-Jun-23 09:33N 39°26' W 000°19'0 0.0
2016-Jun-23 08:33N 39°26' W 000°19'0 0.0
2016-Jun-23 07:31N 39°26' W 000°19'0 0.0
2016-Jun-23 05:33N 39°26' W 000°19'0 0.0
2016-Jun-23 04:33N 39°26' W 000°19'0 0.0
2016-Jun-23 03:34N 39°26' W 000°19'0 0.0
2016-Jun-23 02:34N 39°26' W 000°19'0 0.0
2016-Jun-23 01:33N 39°26' W 000°19'0 0.0
2016-Jun-23 00:33N 39°26' W 000°19'0 0.1
2016-Jun-22 23:33N 39°26' W 000°19'3 3.4
2016-Jun-22 22:33N 39°27' W 000°15'7 7.0
2016-Jun-22 21:33N 39°25' W 000°06'1514.8
2016-Jun-22 20:32N 39°22' E 000°13'1514.7
2016-Jun-22 19:29N 39°19' E 000°33'1414.8
2016-Jun-22 18:34N 39°18' E 000°50'1514.5
2016-Jun-22 17:34N 39°15' E 001°09'1514.6
2016-Jun-22 16:33N 39°13' E 001°28'1514.5
2016-Jun-22 15:33N 39°10' E 001°46'1514.7
2016-Jun-22 14:33N 39°07' E 002°04'1615.6
2016-Jun-22 13:33N 39°03' E 002°24'1716.6
2016-Jun-22 12:34N 38°59' E 002°45'1716.7
2016-Jun-22 11:33N 38°55' E 003°06'1716.7
2016-Jun-22 10:33N 38°52' E 003°27'1916.7
2016-Jun-22 09:26N 38°47' E 003°50'3216.8
2016-Jun-22 07:33N 38°40' E 004°29'1815.8
2016-Jun-22 06:27N 38°35' E 004°51'1515.9
2016-Jun-22 05:31N 38°32' E 005°10'5417.0
2016-Jun-22 02:21N 38°19' E 006°16'  
Track history (hours):
 
Tides and Currents Weather Stations Pressure Air Temp Water Temp Dewpoint Dewpoint Depression Visibility Wind Speed Wind Dir Waves Ship Positions

Seago Piraeus

Last reported at 2016-Jul-01 23:33 UTC. Time now 2016-Jul-02 00:22 UTC.
Position N 53°39' E 008°07'.

Length 294 m; draft 12 m.

Type: Ship (hazmat cat A). MMSI: 219117000.

Date/timePositionNaut miles runAvg speedWind from/ knotsBaromVisibWave heightAir tempDewpointWater temp
2016-Jul-01 23:33N 53°39' E 008°07'1312.6
2016-Jul-01 22:33N 53°49' E 007°55'1111.2
2016-Jul-01 21:33N 53°52' E 007°37'6 5.6
2016-Jul-01 20:33N 53°52' E 007°28'1 1.1
2016-Jul-01 19:33N 53°53' E 007°28'1 0.7
2016-Jul-01 18:34N 53°53' E 007°27'5 4.8
2016-Jul-01 17:33N 53°52' E 007°19'2020.1
2016-Jul-01 16:34N 53°48' E 006°46'2323.0
2016-Jul-01 15:33N 53°42' E 006°08'2323.3
2016-Jul-01 14:34N 53°35' E 005°31'2423.5
2016-Jul-01 13:33N 53°26' E 004°53'2422.8
2016-Jul-01 12:31N 53°07' E 004°30'2223.5
2016-Jul-01 11:33N 52°49' E 004°09'9322.6
2016-Jul-01 07:27N 51°53' E 002°08'1719.1
2016-Jul-01 06:33N 51°50' E 001°41'1212.3
2016-Jul-01 05:33N 51°56' E 001°23'4 4.0
2016-Jul-01 04:33N 51°58' E 001°17'0 0.0
2016-Jul-01 03:32N 51°58' E 001°17'0 0.0
2016-Jul-01 02:32N 51°58' E 001°17'0 0.0
2016-Jul-01 01:32N 51°58' E 001°17'0 0.0
2016-Jul-01 00:32N 51°58' E 001°17'0 0.0
2016-Jun-30 23:32N 51°58' E 001°17'0 0.0
2016-Jun-30 22:32N 51°58' E 001°17'0 0.0
2016-Jun-30 21:32N 51°58' E 001°17'0 0.0
2016-Jun-30 20:32N 51°58' E 001°17'0 0.0
2016-Jun-30 19:32N 51°58' E 001°17'0 0.0
2016-Jun-30 18:32N 51°58' E 001°17'0 0.0
2016-Jun-30 17:32N 51°58' E 001°17'0 0.0
2016-Jun-30 16:32N 51°58' E 001°17'0 0.0
2016-Jun-30 15:32N 51°58' E 001°17'0 0.0
2016-Jun-30 14:32N 51°58' E 001°17'0 0.0
2016-Jun-30 13:32N 51°58' E 001°17'0 0.0
2016-Jun-30 12:32N 51°58' E 001°17'0 0.0
2016-Jun-30 11:32N 51°58' E 001°17'0 0.0
2016-Jun-30 10:32N 51°58' E 001°17'0 0.0
2016-Jun-30 09:32N 51°58' E 001°17'0 0.0
2016-Jun-30 08:32N 51°58' E 001°17'0 0.0
2016-Jun-30 07:32N 51°58' E 001°17'0 0.0
2016-Jun-30 06:32N 51°58' E 001°17'0 0.0
2016-Jun-30 05:32N 51°58' E 001°17'0 0.0
2016-Jun-30 04:32N 51°58' E 001°17'0 0.0
2016-Jun-30 03:32N 51°58' E 001°17'0 0.0
2016-Jun-30 02:32N 51°58' E 001°17'0 0.0
2016-Jun-30 01:32N 51°58' E 001°17'0 0.0
2016-Jun-30 00:32N 51°58' E 001°17'0 0.0
2016-Jun-29 23:32N 51°58' E 001°17'0 0.0
2016-Jun-29 22:32N 51°58' E 001°17'0 0.0
2016-Jun-29 21:32N 51°58' E 001°17'0 0.0
2016-Jun-29 20:32N 51°58' E 001°17'0 0.0
2016-Jun-29 19:32N 51°58' E 001°17'0 0.0
2016-Jun-29 18:32N 51°58' E 001°17'0 0.0
2016-Jun-29 17:32N 51°58' E 001°17'0 0.0
2016-Jun-29 16:32N 51°58' E 001°17'0 0.0
2016-Jun-29 15:32N 51°58' E 001°17'0 0.0
2016-Jun-29 14:32N 51°58' E 001°17'0 0.0
2016-Jun-29 13:32N 51°58' E 001°17'0 0.0
2016-Jun-29 12:32N 51°58' E 001°17'0 0.0
2016-Jun-29 11:32N 51°58' E 001°17'0 0.0
2016-Jun-29 10:32N 51°58' E 001°17'0 0.0
2016-Jun-29 09:32N 51°58' E 001°17'0 0.0
2016-Jun-29 08:32N 51°58' E 001°17'2 1.8
2016-Jun-29 07:33N 51°56' E 001°19'9 9.5
2016-Jun-29 06:33N 51°54' E 001°34'6 5.7
2016-Jun-29 05:33N 51°51' E 001°42'4 4.4
2016-Jun-29 04:33N 51°51' E 001°49'5 5.4
2016-Jun-29 03:33N 51°45' E 001°49'5 5.2
2016-Jun-29 02:33N 51°40' E 001°49'8 8.1
2016-Jun-29 01:33N 51°32' E 001°49'10 9.8
2016-Jun-29 00:33N 51°23' E 001°44'1212.3
2016-Jun-28 23:33N 51°11' E 001°38'1211.6
2016-Jun-28 22:33N 51°00' E 001°32'1413.8
2016-Jun-28 21:34N 50°48' E 001°23'5012.5
2016-Jun-28 17:33N 50°23' E 000°15'1413.6
2016-Jun-28 16:34N 50°19' W 000°06'1514.3
2016-Jun-28 15:32N 50°15' W 000°28'1515.3
2016-Jun-28 14:33N 50°10' W 000°50'7815.7
2016-Jun-28 09:33N 49°50' W 002°48'1515.0
2016-Jun-28 08:34N 49°43' W 003°09'1615.6
2016-Jun-28 07:34N 49°35' W 003°30'6416.0
2016-Jun-28 03:34N 49°03' W 004°55'1717.2
2016-Jun-28 02:34N 48°54' W 005°17'60417.2
2016-Jun-26 15:29N 39°22' W 009°49'1617.1
2016-Jun-26 14:33N 39°07' W 009°50'1717.1
2016-Jun-26 13:33N 38°49' W 009°51'1716.8
2016-Jun-26 12:33N 38°33' W 009°47'1716.7
2016-Jun-26 11:33N 38°17' W 009°42'1717.1
2016-Jun-26 10:34N 37°60' W 009°38'1716.9
2016-Jun-26 09:33N 37°43' W 009°33'3517.3
2016-Jun-26 07:33N 37°09' W 009°24'4615.2
2016-Jun-26 04:33N 36°38' W 008°43'1817.5
2016-Jun-26 03:33N 36°32' W 008°22'13916.8
2016-Jun-25 19:19N 35°58' W 005°36'1013.8
2016-Jun-25 18:33N 36°02' W 005°24'7 7.3
2016-Jun-25 17:34N 36°10' W 005°25'0 0.0
2016-Jun-25 16:30N 36°10' W 005°25'0 0.0
2016-Jun-25 15:33N 36°09' W 005°25'0 0.0
2016-Jun-25 14:30N 36°09' W 005°25'0 0.0
2016-Jun-25 13:33N 36°09' W 005°25'0 0.0
2016-Jun-25 10:15N 36°09' W 005°25'0 0.0
2016-Jun-25 08:30N 36°09' W 005°25'0 0.0
2016-Jun-25 07:33N 36°09' W 005°25'0 0.0
2016-Jun-25 06:27N 36°09' W 005°25'0 0.1
2016-Jun-25 05:33N 36°09' W 005°25'0 0.1
2016-Jun-25 04:33N 36°09' W 005°25'0 0.1
2016-Jun-25 03:33N 36°10' W 005°25'0 0.1
2016-Jun-25 02:33N 36°10' W 005°25'0 0.1
2016-Jun-25 01:33N 36°10' W 005°25'0 0.1
2016-Jun-25 00:33N 36°09' W 005°25'0 0.1
2016-Jun-24 23:33N 36°09' W 005°25'0 0.0
2016-Jun-24 22:33N 36°09' W 005°25'0 0.1
2016-Jun-24 21:32N 36°09' W 005°25'0 0.1
2016-Jun-24 20:33N 36°10' W 005°25'0 0.1
2016-Jun-24 19:33N 36°10' W 005°25'0 0.0
2016-Jun-24 18:33N 36°10' W 005°25'0 0.0
2016-Jun-24 17:33N 36°10' W 005°25'0 0.1
2016-Jun-24 16:33N 36°10' W 005°25'0 0.0
2016-Jun-24 15:33N 36°10' W 005°25'0 0.0
2016-Jun-24 14:33N 36°10' W 005°25'0 0.1
2016-Jun-24 13:28N 36°09' W 005°25'4 4.3
2016-Jun-24 12:34N 36°06' W 005°23'4 4.1
2016-Jun-24 11:34N 36°05' W 005°18'16017.1
2016-Jun-24 02:14N 36°32' W 002°03'1318.9
2016-Jun-24 01:33N 36°40' W 001°51'1919.0
2016-Jun-24 00:34N 36°52' W 001°33'1918.9
2016-Jun-23 23:33N 37°05' W 001°15'1918.8
2016-Jun-23 22:33N 37°17' W 000°57'1918.6
2016-Jun-23 21:33N 37°30' W 000°40'1818.0
2016-Jun-23 20:33N 37°44' W 000°26'1817.9
2016-Jun-23 19:33N 37°59' W 000°13'1918.4
2016-Jun-23 18:33N 38°15' W 000°01'1818.1
2016-Jun-23 17:32N 38°30' E 000°12'1818.0
2016-Jun-23 16:33N 38°45' E 000°24'1818.2
2016-Jun-23 15:32N 38°60' E 000°10'1818.3
2016-Jun-23 14:33N 39°14' W 000°04'1616.2
2016-Jun-23 13:33N 39°26' W 000°19'0 0.4
2016-Jun-23 12:28N 39°26' W 000°19'0 0.0
2016-Jun-23 11:33N 39°26' W 000°19'0 0.0
2016-Jun-23 10:33N 39°26' W 000°19'0 0.0
2016-Jun-23 09:33N 39°26' W 000°19'0 0.0
2016-Jun-23 08:33N 39°26' W 000°19'0 0.0
2016-Jun-23 07:31N 39°26' W 000°19'0 0.0
2016-Jun-23 05:33N 39°26' W 000°19'0 0.0
2016-Jun-23 04:33N 39°26' W 000°19'0 0.0
2016-Jun-23 03:34N 39°26' W 000°19'0 0.0
2016-Jun-23 02:34N 39°26' W 000°19'0 0.0
2016-Jun-23 01:33N 39°26' W 000°19'0 0.0
2016-Jun-23 00:33N 39°26' W 000°19'0 0.1
2016-Jun-22 23:33N 39°26' W 000°19'3 3.4
2016-Jun-22 22:33N 39°27' W 000°15'7 7.0
2016-Jun-22 21:33N 39°25' W 000°06'1514.8
2016-Jun-22 20:32N 39°22' E 000°13'1514.7
2016-Jun-22 19:29N 39°19' E 000°33'1414.8
2016-Jun-22 18:34N 39°18' E 000°50'1514.5
2016-Jun-22 17:34N 39°15' E 001°09'1514.6
2016-Jun-22 16:33N 39°13' E 001°28'1514.5
2016-Jun-22 15:33N 39°10' E 001°46'1514.7
2016-Jun-22 14:33N 39°07' E 002°04'1615.6
2016-Jun-22 13:33N 39°03' E 002°24'1716.6
2016-Jun-22 12:34N 38°59' E 002°45'1716.7
2016-Jun-22 11:33N 38°55' E 003°06'1716.7
2016-Jun-22 10:33N 38°52' E 003°27'1916.7
2016-Jun-22 09:26N 38°47' E 003°50'3216.8
2016-Jun-22 07:33N 38°40' E 004°29'1815.8
2016-Jun-22 06:27N 38°35' E 004°51'1515.9
2016-Jun-22 05:31N 38°32' E 005°10'5417.0
2016-Jun-22 02:21N 38°19' E 006°16'  

Dump ship's entire track history